Rainbow, Texas
Current Conditions -  °F | °C
As of 8:35 AM on Friday 28 Nov 2014 (Local Time) from KGDJ Reporting Station
Clear Clear  
Wind Chill: 45°   Ceiling: Unl
Heat Index: 48°   Visibility: 10mi
Dew Point: 38°   Wind: 7mph
Humidity: 69%   Direction: 150°SSE
Pressure: 30.25"   Gusts: NA
Location:  32.27°N, 97.7°W
Report Text: KGDJ 281435Z AUTO 15006KT 10SM CLR 09/04 A3025 RMK AO2 T00900035
Loading
Personal Weather Stations






























Interactive Weather Map New forecast layout! Learn more

10-Day Weather Forecast

Advertisements
Track Severe Weather on mobile